sensor_id;sensor_type;location;lat;lon;timestamp;P1;durP1;ratioP1;P2;durP2;ratioP2
13872;SDS011;7006;51.494;11.964;2024-01-15T00:00:00;17.23;;;10.20;;
13872;SDS011;7006;51.494;11.964;2024-01-15T00:02:28;23.40;;;13.10;;
13872;SDS011;7006;51.494;11.964;2024-01-15T00:04:57;21.50;;;12.90;;
13872;SDS011;7006;51.494;11.964;2024-01-15T00:07:25;23.30;;;13.10;;
13872;SDS011;7006;51.494;11.964;2024-01-15T00:09:54;19.67;;;11.27;;
13872;SDS011;7006;51.494;11.964;2024-01-15T00:12:22;21.50;;;11.93;;
13872;SDS011;7006;51.494;11.964;2024-01-15T00:14:53;25.60;;;15.37;;
13872;SDS011;7006;51.494;11.964;2024-01-15T00:17:21;23.07;;;13.90;;
13872;SDS011;7006;51.494;11.964;2024-01-15T00:19:49;23.67;;;13.23;;
13872;SDS011;7006;51.494;11.964;2024-01-15T00:22:18;25.90;;;15.03;;
13872;SDS011;7006;51.494;11.964;2024-01-15T00:24:46;22.90;;;14.33;;
13872;SDS011;7006;51.494;11.964;2024-01-15T00:27:14;21.83;;;13.00;;
13872;SDS011;7006;51.494;11.964;2024-01-15T00:29:43;24.43;;;14.30;;
13872;SDS011;7006;51.494;11.964;2024-01-15T00:32:13;20.50;;;12.20;;
13872;SDS011;7006;51.494;11.964;2024-01-15T00:34:42;26.13;;;14.50;;
13872;SDS011;7006;51.494;11.964;2024-01-15T00:37:10;23.10;;;13.00;;
13872;SDS011;7006;51.494;11.964;2024-01-15T00:39:38;22.33;;;13.53;;
13872;SDS011;7006;51.494;11.964;2024-01-15T00:42:07;20.33;;;11.23;;
13872;SDS011;7006;51.494;11.964;2024-01-15T00:44:35;23.60;;;14.20;;
13872;SDS011;7006;51.494;11.964;2024-01-15T00:47:04;25.37;;;14.50;;
13872;SDS011;7006;51.494;11.964;2024-01-15T00:49:35;23.27;;;13.10;;
13872;SDS011;7006;51.494;11.964;2024-01-15T00:52:03;21.60;;;13.20;;
13872;SDS011;7006;51.494;11.964;2024-01-15T00:54:32;20.77;;;12.23;;
13872;SDS011;7006;51.494;11.964;2024-01-15T00:57:00;24.80;;;13.57;;
13872;SDS011;7006;51.494;11.964;2024-01-15T00:59:29;23.73;;;13.57;;
13872;SDS011;7006;51.494;11.964;2024-01-15T01:01:57;24.80;;;12.90;;
13872;SDS011;7006;51.494;11.964;2024-01-15T01:04:25;25.17;;;14.53;;
13872;SDS011;7006;51.494;11.964;2024-01-15T01:06:56;20.00;;;11.87;;
13872;SDS011;7006;51.494;11.964;2024-01-15T01:09:25;25.37;;;13.67;;
13872;SDS011;7006;51.494;11.964;2024-01-15T01:11:55;22.30;;;13.50;;
13872;SDS011;7006;51.494;11.964;2024-01-15T01:14:23;20.57;;;12.80;;
13872;SDS011;7006;51.494;11.964;2024-01-15T01:16:52;23.37;;;13.43;;
13872;SDS011;7006;51.494;11.964;2024-01-15T01:19:20;22.83;;;14.30;;
13872;SDS011;7006;51.494;11.964;2024-01-15T01:21:50;19.40;;;11.50;;
13872;SDS011;7006;51.494;11.964;2024-01-15T01:24:21;23.40;;;13.97;;
13872;SDS011;7006;51.494;11.964;2024-01-15T01:26:49;27.83;;;14.70;;
13872;SDS011;7006;51.494;11.964;2024-01-15T01:29:17;19.43;;;11.20;;
13872;SDS011;7006;51.494;11.964;2024-01-15T01:31:46;27.07;;;14.50;;
13872;SDS011;7006;51.494;11.964;2024-01-15T01:34:15;24.70;;;14.27;;
13872;SDS011;7006;51.494;11.964;2024-01-15T01:36:44;28.67;;;15.00;;
13872;SDS011;7006;51.494;11.964;2024-01-15T01:39:12;25.83;;;14.60;;
13872;SDS011;7006;51.494;11.964;2024-01-15T01:41:43;24.33;;;13.43;;
13872;SDS011;7006;51.494;11.964;2024-01-15T01:44:11;23.30;;;13.10;;
13872;SDS011;7006;51.494;11.964;2024-01-15T01:46:40;26.30;;;12.43;;
13872;SDS011;7006;51.494;11.964;2024-01-15T01:49:08;25.63;;;14.60;;
13872;SDS011;7006;51.494;11.964;2024-01-15T01:51:37;24.93;;;14.50;;
13872;SDS011;7006;51.494;11.964;2024-01-15T01:54:06;21.60;;;13.00;;
13872;SDS011;7006;51.494;11.964;2024-01-15T01:56:37;24.77;;;13.17;;
13872;SDS011;7006;51.494;11.964;2024-01-15T01:59:09;26.43;;;15.17;;
13872;SDS011;7006;51.494;11.964;2024-01-15T02:01:38;22.70;;;12.77;;
13872;SDS011;7006;51.494;11.964;2024-01-15T02:04:07;26.20;;;14.00;;
13872;SDS011;7006;51.494;11.964;2024-01-15T02:06:35;20.60;;;12.60;;
13872;SDS011;7006;51.494;11.964;2024-01-15T02:09:04;20.80;;;12.67;;
13872;SDS011;7006;51.494;11.964;2024-01-15T02:11:32;28.40;;;15.73;;
13872;SDS011;7006;51.494;11.964;2024-01-15T02:14:01;23.63;;;12.67;;
13872;SDS011;7006;51.494;11.964;2024-01-15T02:16:31;24.20;;;15.10;;
13872;SDS011;7006;51.494;11.964;2024-01-15T02:19:00;24.23;;;12.90;;
13872;SDS011;7006;51.494;11.964;2024-01-15T02:21:31;25.73;;;13.83;;
13872;SDS011;7006;51.494;11.964;2024-01-15T02:24:02;22.73;;;14.03;;
13872;SDS011;7006;51.494;11.964;2024-01-15T02:26:30;26.23;;;15.10;;
13872;SDS011;7006;51.494;11.964;2024-01-15T02:29:01;23.03;;;12.33;;
13872;SDS011;7006;51.494;11.964;2024-01-15T02:31:29;21.47;;;12.53;;
13872;SDS011;7006;51.494;11.964;2024-01-15T02:33:57;26.57;;;14.53;;
13872;SDS011;7006;51.494;11.964;2024-01-15T02:36:26;23.07;;;12.30;;
13872;SDS011;7006;51.494;11.964;2024-01-15T02:38:54;23.00;;;11.73;;
13872;SDS011;7006;51.494;11.964;2024-01-15T02:41:25;26.33;;;13.00;;
13872;SDS011;7006;51.494;11.964;2024-01-15T02:43:53;21.93;;;12.30;;
13872;SDS011;7006;51.494;11.964;2024-01-15T02:46:22;24.47;;;12.97;;
13872;SDS011;7006;51.494;11.964;2024-01-15T02:48:50;25.20;;;13.03;;
13872;SDS011;7006;51.494;11.964;2024-01-15T02:51:18;20.47;;;11.47;;
13872;SDS011;7006;51.494;11.964;2024-01-15T02:53:47;23.57;;;12.37;;
13872;SDS011;7006;51.494;11.964;2024-01-15T02:56:16;19.23;;;11.67;;
13872;SDS011;7006;51.494;11.964;2024-01-15T02:58:47;22.10;;;12.37;;
13872;SDS011;7006;51.494;11.964;2024-01-15T03:01:18;24.30;;;12.60;;
13872;SDS011;7006;51.494;11.964;2024-01-15T03:03:47;24.53;;;12.43;;
13872;SDS011;7006;51.494;11.964;2024-01-15T03:06:15;21.03;;;12.70;;
13872;SDS011;7006;51.494;11.964;2024-01-15T03:08:43;22.73;;;11.67;;
13872;SDS011;7006;51.494;11.964;2024-01-15T03:11:12;22.40;;;12.73;;
13872;SDS011;7006;51.494;11.964;2024-01-15T03:13:40;24.00;;;12.93;;
13872;SDS011;7006;51.494;11.964;2024-01-15T03:16:11;24.07;;;13.23;;
13872;SDS011;7006;51.494;11.964;2024-01-15T03:18:39;24.10;;;12.70;;
13872;SDS011;7006;51.494;11.964;2024-01-15T03:21:07;24.60;;;13.60;;
13872;SDS011;7006;51.494;11.964;2024-01-15T03:23:36;27.40;;;13.67;;
13872;SDS011;7006;51.494;11.964;2024-01-15T03:26:04;19.20;;;10.30;;
13872;SDS011;7006;51.494;11.964;2024-01-15T03:28:29;27.90;;;13.73;;
13872;SDS011;7006;51.494;11.964;2024-01-15T03:30:58;23.70;;;13.00;;
13872;SDS011;7006;51.494;11.964;2024-01-15T03:33:30;27.83;;;14.40;;
13872;SDS011;7006;51.494;11.964;2024-01-15T03:35:58;27.30;;;13.30;;
13872;SDS011;7006;51.494;11.964;2024-01-15T03:38:28;22.53;;;11.50;;
13872;SDS011;7006;51.494;11.964;2024-01-15T03:40:56;22.30;;;13.53;;
13872;SDS011;7006;51.494;11.964;2024-01-15T03:43:25;24.07;;;11.73;;
13872;SDS011;7006;51.494;11.964;2024-01-15T03:45:54;20.43;;;11.40;;
13872;SDS011;7006;51.494;11.964;2024-01-15T03:48:22;19.57;;;11.03;;
13872;SDS011;7006;51.494;11.964;2024-01-15T03:50:53;18.70;;;10.83;;
13872;SDS011;7006;51.494;11.964;2024-01-15T03:53:22;25.27;;;13.03;;
13872;SDS011;7006;51.494;11.964;2024-01-15T03:55:50;16.77;;;9.70;;
13872;SDS011;7006;51.494;11.964;2024-01-15T03:58:18;24.50;;;12.93;;
13872;SDS011;7006;51.494;11.964;2024-01-15T04:00:47;19.57;;;10.97;;
13872;SDS011;7006;51.494;11.964;2024-01-15T04:03:15;18.77;;;10.10;;
13872;SDS011;7006;51.494;11.964;2024-01-15T04:05:44;18.83;;;10.13;;
13872;SDS011;7006;51.494;11.964;2024-01-15T04:08:14;23.37;;;12.60;;
13872;SDS011;7006;51.494;11.964;2024-01-15T04:10:43;18.50;;;10.27;;
13872;SDS011;7006;51.494;11.964;2024-01-15T04:13:11;17.40;;;8.90;;
13872;SDS011;7006;51.494;11.964;2024-01-15T04:15:39;18.60;;;10.40;;
13872;SDS011;7006;51.494;11.964;2024-01-15T04:18:08;18.07;;;10.80;;
13872;SDS011;7006;51.494;11.964;2024-01-15T04:20:36;16.50;;;9.87;;
13872;SDS011;7006;51.494;11.964;2024-01-15T04:23:04;17.57;;;10.63;;
13872;SDS011;7006;51.494;11.964;2024-01-15T04:25:35;16.30;;;9.80;;
13872;SDS011;7006;51.494;11.964;2024-01-15T04:28:06;17.10;;;9.77;;
13872;SDS011;7006;51.494;11.964;2024-01-15T04:30:34;17.90;;;11.53;;
13872;SDS011;7006;51.494;11.964;2024-01-15T04:33:03;18.30;;;11.53;;
13872;SDS011;7006;51.494;11.964;2024-01-15T04:35:31;19.90;;;9.80;;
13872;SDS011;7006;51.494;11.964;2024-01-15T04:38:00;13.13;;;9.03;;
13872;SDS011;7006;51.494;11.964;2024-01-15T04:40:28;19.30;;;10.60;;
13872;SDS011;7006;51.494;11.964;2024-01-15T04:42:59;17.57;;;10.20;;
13872;SDS011;7006;51.494;11.964;2024-01-15T04:45:28;15.50;;;9.87;;
13872;SDS011;7006;51.494;11.964;2024-01-15T04:47:56;18.43;;;10.37;;
13872;SDS011;7006;51.494;11.964;2024-01-15T04:50:24;15.23;;;9.47;;
13872;SDS011;7006;51.494;11.964;2024-01-15T04:52:53;13.77;;;7.20;;
13872;SDS011;7006;51.494;11.964;2024-01-15T04:55:21;17.50;;;8.83;;
13872;SDS011;7006;51.494;11.964;2024-01-15T04:57:49;17.10;;;8.40;;
13872;SDS011;7006;51.494;11.964;2024-01-15T05:00:20;17.37;;;8.13;;
13872;SDS011;7006;51.494;11.964;2024-01-15T05:02:49;15.47;;;8.00;;
13872;SDS011;7006;51.494;11.964;2024-01-15T05:05:17;12.17;;;7.03;;
13872;SDS011;7006;51.494;11.964;2024-01-15T05:07:45;14.30;;;8.27;;
13872;SDS011;7006;51.494;11.964;2024-01-15T05:10:14;10.53;;;7.20;;
13872;SDS011;7006;51.494;11.964;2024-01-15T05:12:42;15.13;;;8.47;;
13872;SDS011;7006;51.494;11.964;2024-01-15T05:15:10;13.20;;;7.60;;
13872;SDS011;7006;51.494;11.964;2024-01-15T05:17:41;14.07;;;8.07;;
13872;SDS011;7006;51.494;11.964;2024-01-15T05:20:10;12.90;;;7.63;;
13872;SDS011;7006;51.494;11.964;2024-01-15T05:22:39;15.70;;;7.70;;
13872;SDS011;7006;51.494;11.964;2024-01-15T05:25:07;17.27;;;7.83;;
13872;SDS011;7006;51.494;11.964;2024-01-15T05:27:35;12.90;;;7.80;;
13872;SDS011;7006;51.494;11.964;2024-01-15T05:30:04;12.37;;;8.07;;
13872;SDS011;7006;51.494;11.964;2024-01-15T05:32:33;13.27;;;7.90;;
13872;SDS011;7006;51.494;11.964;2024-01-15T05:35:04;14.57;;;8.60;;
13872;SDS011;7006;51.494;11.964;2024-01-15T05:37:33;14.87;;;7.40;;
13872;SDS011;7006;51.494;11.964;2024-01-15T05:40:01;12.63;;;7.87;;
13872;SDS011;7006;51.494;11.964;2024-01-15T05:42:31;12.63;;;7.70;;
13872;SDS011;7006;51.494;11.964;2024-01-15T05:45:00;16.97;;;6.97;;
13872;SDS011;7006;51.494;11.964;2024-01-15T05:47:30;10.73;;;6.90;;
13872;SDS011;7006;51.494;11.964;2024-01-15T05:50:22;15.47;;;7.77;;
13872;SDS011;7006;51.494;11.964;2024-01-15T05:52:50;12.80;;;6.30;;
13872;SDS011;7006;51.494;11.964;2024-01-15T05:55:19;11.43;;;6.40;;
13872;SDS011;7006;51.494;11.964;2024-01-15T05:57:47;11.70;;;6.83;;
13872;SDS011;7006;51.494;11.964;2024-01-15T06:00:16;13.00;;;7.30;;
13872;SDS011;7006;51.494;11.964;2024-01-15T06:02:44;13.03;;;8.00;;
13872;SDS011;7006;51.494;11.964;2024-01-15T06:05:13;14.97;;;8.03;;
13872;SDS011;7006;51.494;11.964;2024-01-15T06:07:44;12.43;;;7.57;;
13872;SDS011;7006;51.494;11.964;2024-01-15T06:10:12;15.60;;;7.23;;
13872;SDS011;7006;51.494;11.964;2024-01-15T06:12:43;11.50;;;6.97;;
13872;SDS011;7006;51.494;11.964;2024-01-15T06:15:12;12.97;;;8.40;;
13872;SDS011;7006;51.494;11.964;2024-01-15T06:17:40;12.00;;;7.50;;
13872;SDS011;7006;51.494;11.964;2024-01-15T06:20:10;14.87;;;7.03;;
13872;SDS011;7006;51.494;11.964;2024-01-15T06:22:39;16.33;;;8.50;;
13872;SDS011;7006;51.494;11.964;2024-01-15T06:25:10;13.30;;;7.50;;
13872;SDS011;7006;51.494;11.964;2024-01-15T06:27:38;16.73;;;7.80;;
13872;SDS011;7006;51.494;11.964;2024-01-15T06:30:07;12.63;;;7.07;;
13872;SDS011;7006;51.494;11.964;2024-01-15T06:32:36;13.03;;;7.53;;
13872;SDS011;7006;51.494;11.964;2024-01-15T06:35:05;14.03;;;8.80;;
13872;SDS011;7006;51.494;11.964;2024-01-15T06:37:35;10.40;;;6.73;;
13872;SDS011;7006;51.494;11.964;2024-01-15T06:40:04;14.93;;;8.70;;
13872;SDS011;7006;51.494;11.964;2024-01-15T06:42:36;14.40;;;7.40;;
13872;SDS011;7006;51.494;11.964;2024-01-15T06:45:04;12.10;;;7.93;;
13872;SDS011;7006;51.494;11.964;2024-01-15T06:47:34;12.73;;;7.77;;
13872;SDS011;7006;51.494;11.964;2024-01-15T06:50:02;11.50;;;5.87;;
13872;SDS011;7006;51.494;11.964;2024-01-15T06:52:32;10.80;;;6.77;;
13872;SDS011;7006;51.494;11.964;2024-01-15T06:54:57;14.00;;;7.70;;
13872;SDS011;7006;51.494;11.964;2024-01-15T06:57:26;13.50;;;8.40;;
13872;SDS011;7006;51.494;11.964;2024-01-15T06:59:57;16.00;;;8.30;;
13872;SDS011;7006;51.494;11.964;2024-01-15T07:02:25;15.90;;;7.47;;
13872;SDS011;7006;51.494;11.964;2024-01-15T07:04:54;16.37;;;8.23;;
13872;SDS011;7006;51.494;11.964;2024-01-15T07:07:22;13.60;;;8.07;;
13872;SDS011;7006;51.494;11.964;2024-01-15T07:09:54;13.37;;;7.00;;
13872;SDS011;7006;51.494;11.964;2024-01-15T07:12:22;15.53;;;8.33;;
13872;SDS011;7006;51.494;11.964;2024-01-15T07:14:50;16.77;;;6.63;;
13872;SDS011;7006;51.494;11.964;2024-01-15T07:17:22;15.30;;;8.87;;
13872;SDS011;7006;51.494;11.964;2024-01-15T07:19:50;16.43;;;7.93;;
13872;SDS011;7006;51.494;11.964;2024-01-15T07:22:19;15.47;;;8.60;;
13872;SDS011;7006;51.494;11.964;2024-01-15T07:24:47;17.33;;;9.80;;
13872;SDS011;7006;51.494;11.964;2024-01-15T07:27:15;12.77;;;7.53;;
13872;SDS011;7006;51.494;11.964;2024-01-15T07:29:44;14.07;;;8.23;;
13872;SDS011;7006;51.494;11.964;2024-01-15T07:32:13;18.50;;;8.73;;
13872;SDS011;7006;51.494;11.964;2024-01-15T07:34:44;12.83;;;9.03;;
13872;SDS011;7006;51.494;11.964;2024-01-15T07:37:13;13.00;;;8.27;;
13872;SDS011;7006;51.494;11.964;2024-01-15T07:39:41;14.20;;;8.67;;
13872;SDS011;7006;51.494;11.964;2024-01-15T07:42:09;14.50;;;8.53;;
13872;SDS011;7006;51.494;11.964;2024-01-15T07:44:38;15.57;;;7.80;;
13872;SDS011;7006;51.494;11.964;2024-01-15T07:47:06;16.17;;;8.43;;
13872;SDS011;7006;51.494;11.964;2024-01-15T07:49:34;12.97;;;8.50;;
13872;SDS011;7006;51.494;11.964;2024-01-15T07:52:05;13.70;;;8.60;;
13872;SDS011;7006;51.494;11.964;2024-01-15T07:54:34;15.40;;;8.40;;
13872;SDS011;7006;51.494;11.964;2024-01-15T07:57:02;14.90;;;9.13;;
13872;SDS011;7006;51.494;11.964;2024-01-15T07:59:31;13.70;;;7.87;;
13872;SDS011;7006;51.494;11.964;2024-01-15T08:01:59;13.30;;;8.40;;
13872;SDS011;7006;51.494;11.964;2024-01-15T08:04:27;12.97;;;8.00;;
13872;SDS011;7006;51.494;11.964;2024-01-15T08:06:56;15.97;;;8.23;;
13872;SDS011;7006;51.494;11.964;2024-01-15T08:09:27;18.50;;;9.70;;
13872;SDS011;7006;51.494;11.964;2024-01-15T08:11:55;14.93;;;7.90;;
13872;SDS011;7006;51.494;11.964;2024-01-15T08:14:23;12.10;;;7.87;;
13872;SDS011;7006;51.494;11.964;2024-01-15T08:16:52;14.30;;;7.83;;
13872;SDS011;7006;51.494;11.964;2024-01-15T08:19:20;12.47;;;8.70;;
13872;SDS011;7006;51.494;11.964;2024-01-15T08:21:48;10.37;;;5.93;;
13872;SDS011;7006;51.494;11.964;2024-01-15T08:24:17;19.60;;;11.20;;
13872;SDS011;7006;51.494;11.964;2024-01-15T08:26:48;15.50;;;9.27;;
13872;SDS011;7006;51.494;11.964;2024-01-15T08:29:16;13.60;;;8.20;;
13872;SDS011;7006;51.494;11.964;2024-01-15T08:31:46;15.37;;;9.70;;
13872;SDS011;7006;51.494;11.964;2024-01-15T08:34:14;17.70;;;8.00;;
13872;SDS011;7006;51.494;11.964;2024-01-15T08:36:42;10.73;;;6.30;;
13872;SDS011;7006;51.494;11.964;2024-01-15T08:39:11;16.23;;;7.83;;
13872;SDS011;7006;51.494;11.964;2024-01-15T08:41:40;17.30;;;9.10;;
13872;SDS011;7006;51.494;11.964;2024-01-15T08:44:11;14.00;;;7.80;;
13872;SDS011;7006;51.494;11.964;2024-01-15T08:46:39;15.43;;;8.70;;
13872;SDS011;7006;51.494;11.964;2024-01-15T08:49:07;11.53;;;7.57;;
13872;SDS011;7006;51.494;11.964;2024-01-15T08:51:36;11.30;;;6.70;;
13872;SDS011;7006;51.494;11.964;2024-01-15T08:54:04;12.00;;;7.90;;
13872;SDS011;7006;51.494;11.964;2024-01-15T08:56:33;13.03;;;8.10;;
13872;SDS011;7006;51.494;11.964;2024-01-15T08:59:02;13.97;;;8.17;;
13872;SDS011;7006;51.494;11.964;2024-01-15T09:01:33;10.70;;;6.43;;
13872;SDS011;7006;51.494;11.964;2024-01-15T09:04:01;14.10;;;8.30;;
13872;SDS011;7006;51.494;11.964;2024-01-15T09:06:29;20.20;;;8.13;;
13872;SDS011;7006;51.494;11.964;2024-01-15T09:08:58;15.83;;;7.77;;
13872;SDS011;7006;51.494;11.964;2024-01-15T09:11:26;14.40;;;7.40;;
13872;SDS011;7006;51.494;11.964;2024-01-15T09:13:54;13.67;;;7.43;;
13872;SDS011;7006;51.494;11.964;2024-01-15T09:16:23;10.70;;;5.93;;
13872;SDS011;7006;51.494;11.964;2024-01-15T09:18:54;10.33;;;6.93;;
13872;SDS011;7006;51.494;11.964;2024-01-15T09:21:23;10.07;;;6.20;;
13872;SDS011;7006;51.494;11.964;2024-01-15T09:23:51;10.70;;;6.87;;
13872;SDS011;7006;51.494;11.964;2024-01-15T09:26:20;14.37;;;7.80;;
13872;SDS011;7006;51.494;11.964;2024-01-15T09:28:49;14.40;;;7.43;;
13872;SDS011;7006;51.494;11.964;2024-01-15T09:31:17;12.33;;;7.40;;
13872;SDS011;7006;51.494;11.964;2024-01-15T09:33:46;11.47;;;7.23;;
13872;SDS011;7006;51.494;11.964;2024-01-15T09:36:19;10.83;;;7.13;;
13872;SDS011;7006;51.494;11.964;2024-01-15T09:38:47;10.00;;;5.83;;
13872;SDS011;7006;51.494;11.964;2024-01-15T09:41:16;13.40;;;7.50;;
13872;SDS011;7006;51.494;11.964;2024-01-15T09:43:44;9.77;;;6.77;;
13872;SDS011;7006;51.494;11.964;2024-01-15T09:46:13;11.00;;;6.97;;
13872;SDS011;7006;51.494;11.964;2024-01-15T09:48:42;11.03;;;7.00;;
13872;SDS011;7006;51.494;11.964;2024-01-15T09:51:10;9.43;;;6.00;;
13872;SDS011;7006;51.494;11.964;2024-01-15T09:53:41;10.30;;;6.60;;
13872;SDS011;7006;51.494;11.964;2024-01-15T09:56:10;11.50;;;6.77;;
13872;SDS011;7006;51.494;11.964;2024-01-15T09:58:39;12.47;;;6.70;;
13872;SDS011;7006;51.494;11.964;2024-01-15T10:01:07;13.13;;;6.97;;
13872;SDS011;7006;51.494;11.964;2024-01-15T10:03:36;12.50;;;6.80;;
13872;SDS011;7006;51.494;11.964;2024-01-15T10:06:04;11.20;;;6.80;;
13872;SDS011;7006;51.494;11.964;2024-01-15T10:08:33;10.70;;;7.13;;
13872;SDS011;7006;51.494;11.964;2024-01-15T10:11:05;9.83;;;6.10;;
13872;SDS011;7006;51.494;11.964;2024-01-15T10:13:33;10.13;;;6.97;;
13872;SDS011;7006;51.494;11.964;2024-01-15T10:16:02;12.00;;;6.73;;
13872;SDS011;7006;51.494;11.964;2024-01-15T10:18:30;13.23;;;7.20;;
13872;SDS011;7006;51.494;11.964;2024-01-15T10:20:59;10.13;;;6.47;;
13872;SDS011;7006;51.494;11.964;2024-01-15T10:23:27;10.83;;;6.20;;
13872;SDS011;7006;51.494;11.964;2024-01-15T10:25:56;12.03;;;6.73;;
13872;SDS011;7006;51.494;11.964;2024-01-15T10:28:29;13.43;;;7.67;;
13872;SDS011;7006;51.494;11.964;2024-01-15T10:30:58;13.00;;;7.60;;
13872;SDS011;7006;51.494;11.964;2024-01-15T10:33:27;11.37;;;6.83;;
13872;SDS011;7006;51.494;11.964;2024-01-15T10:35:56;12.40;;;7.70;;
13872;SDS011;7006;51.494;11.964;2024-01-15T10:38:25;13.43;;;7.53;;
13872;SDS011;7006;51.494;11.964;2024-01-15T10:40:54;11.90;;;7.53;;
13872;SDS011;7006;51.494;11.964;2024-01-15T10:43:23;12.03;;;6.93;;
13872;SDS011;7006;51.494;11.964;2024-01-15T10:45:54;9.30;;;6.03;;
13872;SDS011;7006;51.494;11.964;2024-01-15T10:48:22;9.10;;;6.23;;
13872;SDS011;7006;51.494;11.964;2024-01-15T10:50:53;12.63;;;6.80;;
13872;SDS011;7006;51.494;11.964;2024-01-15T10:53:21;13.57;;;6.60;;
13872;SDS011;7006;51.494;11.964;2024-01-15T10:55:51;8.90;;;5.47;;
13872;SDS011;7006;51.494;11.964;2024-01-15T10:58:19;9.63;;;6.30;;
13872;SDS011;7006;51.494;11.964;2024-01-15T11:00:48;9.73;;;6.13;;
13872;SDS011;7006;51.494;11.964;2024-01-15T11:03:19;12.30;;;6.80;;
13872;SDS011;7006;51.494;11.964;2024-01-15T11:05:48;7.07;;;4.37;;
13872;SDS011;7006;51.494;11.964;2024-01-15T11:08:16;9.40;;;6.50;;
13872;SDS011;7006;51.494;11.964;2024-01-15T11:10:47;12.20;;;7.57;;
13872;SDS011;7006;51.494;11.964;2024-01-15T11:13:19;11.20;;;7.87;;
13872;SDS011;7006;51.494;11.964;2024-01-15T11:15:54;11.50;;;6.50;;
13872;SDS011;7006;51.494;11.964;2024-01-15T11:18:23;16.47;;;7.63;;
13872;SDS011;7006;51.494;11.964;2024-01-15T11:23:55;13.00;;;6.90;;
13872;SDS011;7006;51.494;11.964;2024-01-15T11:26:35;13.07;;;7.60;;
13872;SDS011;7006;51.494;11.964;2024-01-15T11:29:04;10.40;;;6.70;;
13872;SDS011;7006;51.494;11.964;2024-01-15T11:40:37;10.00;;;6.20;;
13872;SDS011;7006;51.494;11.964;2024-01-15T11:43:03;11.10;;;5.87;;
13872;SDS011;7006;51.494;11.964;2024-01-15T11:45:32;11.10;;;7.00;;
13872;SDS011;7006;51.494;11.964;2024-01-15T11:48:11;11.97;;;8.10;;
13872;SDS011;7006;51.494;11.964;2024-01-15T11:50:41;14.30;;;7.53;;
13872;SDS011;7006;51.494;11.964;2024-01-15T11:56:01;13.83;;;7.27;;
13872;SDS011;7006;51.494;11.964;2024-01-15T11:58:30;11.73;;;7.60;;
13872;SDS011;7006;51.494;11.964;2024-01-15T12:01:00;12.20;;;7.83;;
13872;SDS011;7006;51.494;11.964;2024-01-15T12:03:31;10.80;;;6.40;;
13872;SDS011;7006;51.494;11.964;2024-01-15T12:06:00;10.70;;;7.60;;
13872;SDS011;7006;51.494;11.964;2024-01-15T12:08:31;12.80;;;7.93;;
13872;SDS011;7006;51.494;11.964;2024-01-15T12:10:59;11.40;;;7.53;;
13872;SDS011;7006;51.494;11.964;2024-01-15T12:13:28;13.23;;;8.30;;
13872;SDS011;7006;51.494;11.964;2024-01-15T12:15:56;9.27;;;5.30;;
13872;SDS011;7006;51.494;11.964;2024-01-15T12:18:25;14.00;;;7.43;;
13872;SDS011;7006;51.494;11.964;2024-01-15T12:20:53;13.27;;;8.20;;
13872;SDS011;7006;51.494;11.964;2024-01-15T12:23:23;11.00;;;7.00;;
13872;SDS011;7006;51.494;11.964;2024-01-15T12:25:55;12.33;;;7.60;;
13872;SDS011;7006;51.494;11.964;2024-01-15T12:28:23;12.63;;;7.67;;
13872;SDS011;7006;51.494;11.964;2024-01-15T12:30:51;10.27;;;5.90;;
13872;SDS011;7006;51.494;11.964;2024-01-15T12:33:21;12.03;;;7.37;;
13872;SDS011;7006;51.494;11.964;2024-01-15T12:35:52;15.23;;;6.60;;
13872;SDS011;7006;51.494;11.964;2024-01-15T12:38:20;13.93;;;6.80;;
13872;SDS011;7006;51.494;11.964;2024-01-15T12:40:49;10.10;;;6.80;;
13872;SDS011;7006;51.494;11.964;2024-01-15T12:43:20;10.93;;;5.83;;
13872;SDS011;7006;51.494;11.964;2024-01-15T12:45:49;11.80;;;6.30;;
13872;SDS011;7006;51.494;11.964;2024-01-15T12:48:18;11.70;;;6.37;;
13872;SDS011;7006;51.494;11.964;2024-01-15T12:50:47;11.23;;;6.30;;
13872;SDS011;7006;51.494;11.964;2024-01-15T12:53:15;11.03;;;6.00;;
13872;SDS011;7006;51.494;11.964;2024-01-15T12:55:43;9.63;;;6.20;;
13872;SDS011;7006;51.494;11.964;2024-01-15T12:58:12;10.40;;;5.80;;
13872;SDS011;7006;51.494;11.964;2024-01-15T13:00:43;8.30;;;5.10;;
13872;SDS011;7006;51.494;11.964;2024-01-15T13:03:11;7.83;;;4.73;;
13872;SDS011;7006;51.494;11.964;2024-01-15T13:05:41;6.60;;;4.60;;
13872;SDS011;7006;51.494;11.964;2024-01-15T13:08:10;9.97;;;5.97;;
13872;SDS011;7006;51.494;11.964;2024-01-15T13:10:38;7.60;;;4.50;;
13872;SDS011;7006;51.494;11.964;2024-01-15T13:13:07;7.87;;;4.70;;
13872;SDS011;7006;51.494;11.964;2024-01-15T13:15:35;6.80;;;4.20;;
13872;SDS011;7006;51.494;11.964;2024-01-15T13:18:06;9.10;;;4.10;;
13872;SDS011;7006;51.494;11.964;2024-01-15T13:20:35;8.07;;;5.47;;
13872;SDS011;7006;51.494;11.964;2024-01-15T13:23:03;9.57;;;5.00;;
13872;SDS011;7006;51.494;11.964;2024-01-15T13:25:32;9.50;;;5.10;;
13872;SDS011;7006;51.494;11.964;2024-01-15T13:28:03;7.00;;;4.73;;
13872;SDS011;7006;51.494;11.964;2024-01-15T13:30:32;9.47;;;5.67;;
13872;SDS011;7006;51.494;11.964;2024-01-15T13:33:00;7.97;;;4.47;;
13872;SDS011;7006;51.494;11.964;2024-01-15T13:35:32;10.37;;;5.67;;
13872;SDS011;7006;51.494;11.964;2024-01-15T13:38:01;9.40;;;5.37;;
13872;SDS011;7006;51.494;11.964;2024-01-15T13:40:29;9.53;;;5.60;;
13872;SDS011;7006;51.494;11.964;2024-01-15T13:42:57;8.20;;;5.33;;
13872;SDS011;7006;51.494;11.964;2024-01-15T13:45:26;8.57;;;5.70;;
13872;SDS011;7006;51.494;11.964;2024-01-15T13:47:55;9.13;;;4.37;;
13872;SDS011;7006;51.494;11.964;2024-01-15T13:50:23;7.37;;;4.33;;
13872;SDS011;7006;51.494;11.964;2024-01-15T13:52:55;8.70;;;4.90;;
13872;SDS011;7006;51.494;11.964;2024-01-15T13:55:23;7.50;;;4.50;;
13872;SDS011;7006;51.494;11.964;2024-01-15T13:57:51;7.67;;;4.40;;
13872;SDS011;7006;51.494;11.964;2024-01-15T14:00:20;11.20;;;5.20;;
13872;SDS011;7006;51.494;11.964;2024-01-15T14:02:48;7.00;;;4.20;;
13872;SDS011;7006;51.494;11.964;2024-01-15T14:05:17;7.53;;;4.43;;
13872;SDS011;7006;51.494;11.964;2024-01-15T14:07:45;4.80;;;3.63;;
13872;SDS011;7006;51.494;11.964;2024-01-15T14:10:16;6.07;;;4.17;;
13872;SDS011;7006;51.494;11.964;2024-01-15T14:12:45;7.33;;;4.00;;
13872;SDS011;7006;51.494;11.964;2024-01-15T14:15:14;8.30;;;3.50;;
13872;SDS011;7006;51.494;11.964;2024-01-15T14:17:42;7.30;;;3.50;;
13872;SDS011;7006;51.494;11.964;2024-01-15T14:20:10;7.10;;;4.37;;
13872;SDS011;7006;51.494;11.964;2024-01-15T14:22:39;5.07;;;3.53;;
13872;SDS011;7006;51.494;11.964;2024-01-15T14:25:07;8.80;;;5.53;;
13872;SDS011;7006;51.494;11.964;2024-01-15T14:27:38;7.03;;;3.63;;
13872;SDS011;7006;51.494;11.964;2024-01-15T14:30:07;6.17;;;4.67;;
13872;SDS011;7006;51.494;11.964;2024-01-15T14:32:38;5.90;;;3.70;;
13872;SDS011;7006;51.494;11.964;2024-01-15T14:35:06;5.50;;;3.70;;
13872;SDS011;7006;51.494;11.964;2024-01-15T14:37:37;5.10;;;3.63;;
13872;SDS011;7006;51.494;11.964;2024-01-15T14:40:06;7.70;;;4.50;;
13872;SDS011;7006;51.494;11.964;2024-01-15T14:42:35;6.17;;;4.43;;
13872;SDS011;7006;51.494;11.964;2024-01-15T14:45:07;7.80;;;3.37;;
13872;SDS011;7006;51.494;11.964;2024-01-15T14:47:36;12.57;;;4.07;;
13872;SDS011;7006;51.494;11.964;2024-01-15T14:50:06;7.07;;;3.60;;
13872;SDS011;7006;51.494;11.964;2024-01-15T14:52:38;6.37;;;3.67;;
13872;SDS011;7006;51.494;11.964;2024-01-15T14:55:07;7.30;;;3.83;;
13872;SDS011;7006;51.494;11.964;2024-01-15T14:57:36;5.77;;;3.90;;